Terminal Aerodrome Forecast
Issued by NWS

Current Version | Previous Version | Text Only | Print | Product List | Glossary On
Versions: 1 2 3 4 5 6 7 8 9 10 11 12 13 14
015
FTUS45 KFGZ 300321 AAA
TAFPRC
TAF AMD
KPRC 300321Z 3003/3024 VRB06KT P6SM SCT120 BKN200
      TEMPO 3003/3004 VRB10G20KT P6SM -TSRA FEW060CB
     FM301800 22008KT P6SM SCT090 BKN110
      TEMPO 3020/3024 VRB10G20KT -TSRA BKN090CB=

USA.gov is the U.S. government's official web portal to all federal, state and local government web resources and services.